Time;durP1;ratioP1;P1;durP2;ratioP2;P2;SDS_P1;SDS_P2;PMS_P1;PMS_P2;Temp;Humidity;BMP_temperature;BMP_pressure;BME280_temperature;BME280_humidity;BME280_pressure;Samples;Min_cycle;Max_cycle;Signal;HPM_P1;HPM_P2
2023/04/04 06:32:57;;;;;;;8.13;3.85;;;1.40;90.60;;;;;;6250525;23;20055;-76
2023/04/04 06:35:59;;;;;;;8.43;3.53;;;1.50;90.60;;;;;;6153125;29;20058;-75
2023/04/04 06:39:01;;;;;;;8.32;3.70;;;1.60;90.60;;;;;;6152849;29;20054;-75
2023/04/04 06:42:03;;;;;;;9.80;3.83;;;1.70;90.20;;;;;;6152940;29;20507;-76
2023/04/04 06:45:06;;;;;;;8.25;3.83;;;1.90;90.00;;;;;;6152984;29;20047;-75
2023/04/04 06:48:09;;;;;;;8.80;4.00;;;1.90;90.10;;;;;;6152590;28;20070;-75
2023/04/04 06:51:11;;;;;;;7.68;3.80;;;1.90;89.90;;;;;;6154325;29;20419;-74
2023/04/04 06:54:13;;;;;;;10.27;3.70;;;1.70;90.10;;;;;;6151868;28;20511;-76
2023/04/04 06:57:15;;;;;;;7.47;3.70;;;1.80;90.60;;;;;;6151939;29;20043;-77
2023/04/04 07:00:18;;;;;;;8.55;3.60;;;1.70;90.30;;;;;;6152296;29;20207;-78
2023/04/04 07:03:22;;;;;;;8.23;3.60;;;1.90;90.50;;;;;;6152223;29;20617;-77
2023/04/04 07:06:25;;;;;;;7.05;3.25;;;2.10;89.50;;;;;;6152357;29;20186;-76
2023/04/04 07:09:27;;;;;;;6.30;3.00;;;2.10;89.60;;;;;;6149710;29;20500;-77
2023/04/04 07:12:30;;;;;;;7.88;3.13;;;2.10;88.30;;;;;;6152556;29;20102;-78
2023/04/04 07:15:32;;;;;;;6.60;3.22;;;2.20;87.20;;;;;;6152238;29;20106;-76
2023/04/04 07:18:35;;;;;;;7.28;2.72;;;2.30;86.00;;;;;;6152092;29;20047;-75
2023/04/04 07:21:37;;;;;;;5.97;3.00;;;2.30;85.80;;;;;;6151941;29;20186;-75
2023/04/04 07:24:40;;;;;;;6.88;3.08;;;2.40;86.00;;;;;;6152039;29;20051;-77
2023/04/04 07:27:41;;;;;;;6.75;2.80;;;2.50;85.30;;;;;;6151783;29;20049;-78
2023/04/04 07:30:43;;;;;;;6.25;2.70;;;2.70;84.70;;;;;;6151887;29;20062;-74
2023/04/04 07:33:46;;;;;;;6.88;2.83;;;2.80;84.10;;;;;;6151910;29;20050;-77
2023/04/04 07:36:48;;;;;;;7.30;2.60;;;2.90;83.70;;;;;;6151766;29;20043;-77
2023/04/04 07:39:50;;;;;;;6.28;2.55;;;3.00;82.60;;;;;;6151791;29;20094;-76
2023/04/04 07:42:53;;;;;;;6.43;2.50;;;3.00;83.00;;;;;;6151546;29;20051;-77
2023/04/04 07:45:55;;;;;;;5.50;2.30;;;3.10;82.80;;;;;;6151552;29;20507;-75
2023/04/04 07:48:59;;;;;;;6.50;2.58;;;3.20;81.80;;;;;;6151301;29;20043;-78
2023/04/04 07:52:02;;;;;;;5.97;2.30;;;3.30;81.50;;;;;;6151294;29;20074;-77
2023/04/04 07:55:06;;;;;;;5.25;2.42;;;3.10;81.20;;;;;;6151184;29;20051;-77
2023/04/04 07:58:08;;;;;;;6.68;2.60;;;3.20;81.50;;;;;;6151374;29;20043;-75
2023/04/04 08:01:09;;;;;;;5.45;2.50;;;3.20;81.40;;;;;;6151091;29;20416;-76
2023/04/04 08:04:13;;;;;;;5.90;2.33;;;3.40;81.60;;;;;;6151309;28;20051;-76
2023/04/04 08:07:14;;;;;;;7.88;2.42;;;3.50;79.70;;;;;;6151159;29;20058;-75
2023/04/04 08:10:17;;;;;;;7.60;2.50;;;3.60;78.30;;;;;;6151333;29;20126;-77
2023/04/04 08:13:19;;;;;;;6.33;2.67;;;3.70;77.40;;;;;;6151551;29;20055;-75
2023/04/04 08:16:22;;;;;;;6.43;2.80;;;3.80;77.10;;;;;;6151148;29;20404;-77
2023/04/04 08:19:26;;;;;;;5.60;2.77;;;3.90;76.30;;;;;;6151203;29;20063;-74
2023/04/04 08:22:27;;;;;;;;;;;3.90;75.80;;;;;;6151672;29;20054;-75
2023/04/04 08:25:29;;;;;;;6.40;2.40;;;3.80;76.30;;;;;;6151037;29;19922;-77
2023/04/04 08:28:31;;;;;;;7.90;3.03;;;3.80;75.40;;;;;;6174764;28;20051;-74
2023/04/04 08:31:33;;;;;;;6.75;2.88;;;3.90;75.80;;;;;;6174768;28;20523;-76
2023/04/04 08:34:37;;;;;;;6.85;2.72;;;3.80;74.60;;;;;;6175034;28;20406;-76
2023/04/04 08:37:39;;;;;;;5.47;2.50;;;4.10;73.60;;;;;;6174911;28;20053;-77
2023/04/04 08:40:41;;;;;;;7.68;3.17;;;4.10;74.00;;;;;;6174649;28;20191;-76
2023/04/04 08:43:45;;;;;;;6.90;2.70;;;4.00;74.40;;;;;;6174978;28;20051;-77
2023/04/04 08:46:49;;;;;;;6.13;2.60;;;4.00;74.20;;;;;;6174804;28;20511;-79
2023/04/04 08:49:55;;;;;;;5.80;2.78;;;4.20;74.50;;;;;;6174820;28;20046;-78
2023/04/04 08:53:01;;;;;;;7.70;2.90;;;4.30;73.70;;;;;;6174696;28;20087;-78
2023/04/04 08:56:04;;;;;;;6.00;2.80;;;4.30;73.50;;;;;;6174846;28;20055;-79
2023/04/04 08:59:06;;;;;;;6.80;2.67;;;4.40;72.70;;;;;;6174707;28;20054;-81
2023/04/04 09:02:18;;;;;;;5.32;2.33;;;4.60;71.40;;;;;;6174582;28;20190;-79
2023/04/04 09:05:21;;;;;;;6.90;2.75;;;4.60;71.00;;;;;;6174733;28;20055;-80
2023/04/04 09:08:24;;;;;;;7.53;2.65;;;4.30;72.20;;;;;;6174596;28;20377;-78
2023/04/04 09:11:27;;;;;;;4.80;2.60;;;4.30;73.40;;;;;;6174440;28;20079;-79
2023/04/04 09:14:30;;;;;;;4.80;2.25;;;4.40;73.10;;;;;;6174214;28;20039;-80
2023/04/04 09:17:33;;;;;;;7.70;2.88;;;4.60;72.30;;;;;;6163718;28;20083;-78
2023/04/04 09:20:41;;;;;;;5.35;2.78;;;4.60;71.20;;;;;;6179191;28;20047;-78
2023/04/04 09:23:43;;;;;;;4.97;2.78;;;4.80;71.10;;;;;;6180830;28;20042;-79
2023/04/04 09:26:50;;;;;;;7.22;2.88;;;4.80;72.00;;;;;;6179338;28;20133;-81
2023/04/04 09:29:51;;;;;;;6.95;2.85;;;4.70;72.40;;;;;;6173923;28;20046;-78
2023/04/04 09:32:53;;;;;;;6.15;2.80;;;4.80;72.50;;;;;;6177856;28;20057;-78
2023/04/04 09:36:00;;;;;;;5.55;2.50;;;4.80;71.80;;;;;;6178455;28;20498;-76
2023/04/04 09:39:03;;;;;;;5.97;2.55;;;5.10;71.80;;;;;;6178626;28;20047;-81
2023/04/04 09:42:07;;;;;;;8.55;2.60;;;5.30;71.50;;;;;;6177676;28;20055;-77
2023/04/04 09:45:09;;;;;;;;;;;5.20;71.40;;;;;;6158085;28;20386;-77
2023/04/04 09:48:12;;;;;;;5.77;2.27;;;5.40;71.80;;;;;;6154334;29;19931;-76
2023/04/04 09:51:16;;;;;;;7.32;2.67;;;5.40;71.50;;;;;;6154657;29;20055;-78
2023/04/04 09:54:21;;;;;;;7.70;2.58;;;5.50;70.80;;;;;;6154949;28;20051;-78
2023/04/04 09:57:24;;;;;;;5.68;2.50;;;5.20;70.70;;;;;;6153844;29;20504;-79
2023/04/04 10:00:30;;;;;;;5.50;2.60;;;5.30;71.40;;;;;;6153678;29;20059;-78
2023/04/04 10:03:32;;;;;;;5.25;2.70;;;5.20;71.50;;;;;;6153668;29;20059;-78
2023/04/04 10:06:37;;;;;;;7.45;2.45;;;5.20;71.50;;;;;;6154389;28;20412;-78
2023/04/04 10:09:39;;;;;;;6.05;2.50;;;5.20;70.70;;;;;;6153518;29;20058;-76
2023/04/04 10:12:41;;;;;;;6.43;2.70;;;5.30;70.00;;;;;;6163789;28;20401;-79
2023/04/04 10:15:46;;;;;;;6.80;2.80;;;5.30;70.50;;;;;;6155454;28;20408;-78
2023/04/04 10:18:48;;;;;;;5.20;2.58;;;5.20;70.70;;;;;;6139552;29;20146;-78
2023/04/04 10:21:52;;;;;;;6.20;2.60;;;5.40;71.30;;;;;;6129472;29;20055;-77
2023/04/04 10:24:54;;;;;;;5.97;3.20;;;5.50;70.20;;;;;;6129221;29;20051;-77
2023/04/04 10:27:56;;;;;;;5.80;2.38;;;5.70;70.20;;;;;;6128650;29;20063;-81
2023/04/04 10:31:06;;;;;;;5.63;2.75;;;5.80;70.30;;;;;;6145341;28;20066;-77
2023/04/04 10:34:14;;;;;;;6.72;2.72;;;5.70;68.60;;;;;;6151776;28;20051;-77
2023/04/04 10:37:25;;;;;;;5.85;2.70;;;5.70;68.70;;;;;;6152905;29;20496;-80
2023/04/04 10:40:33;;;;;;;5.50;2.65;;;5.70;68.50;;;;;;6153069;28;20047;-80
2023/04/04 10:43:40;;;;;;;6.25;2.60;;;5.70;68.80;;;;;;6145856;28;20062;-79
2023/04/04 10:46:47;;;;;;;5.20;2.45;;;5.80;69.20;;;;;;6146206;28;20058;-81
2023/04/04 10:49:52;;;;;;;5.78;2.78;;;5.70;67.80;;;;;;6154746;28;20070;-81
2023/04/04 10:52:58;;;;;;;6.38;3.00;;;5.90;66.80;;;;;;6147496;28;20069;-77
2023/04/04 10:56:01;;;;;;;6.40;2.78;;;6.00;68.20;;;;;;6149798;29;20054;-77
2023/04/04 10:59:12;;;;;;;6.47;2.83;;;6.20;68.60;;;;;;6152800;29;20051;-78
2023/04/04 11:02:14;;;;;;;5.78;2.70;;;6.20;67.80;;;;;;6152150;29;20341;-79
2023/04/04 11:05:22;;;;;;;5.68;2.60;;;6.20;69.00;;;;;;6152358;29;20054;-77
2023/04/04 11:08:29;;;;;;;5.47;2.40;;;6.40;69.30;;;;;;6152234;29;20051;-78
2023/04/04 11:12:07;;;;;;;7.38;2.40;;;6.30;67.30;;;;;;6152420;29;20079;-77
2023/04/04 11:15:11;;;;;;;7.53;2.88;;;6.30;66.40;;;;;;6152101;29;20047;-79
2023/04/04 11:18:14;;;;;;;6.40;2.67;;;6.40;67.50;;;;;;6152230;29;20477;-77
2023/04/04 11:21:18;;;;;;;5.22;2.70;;;6.50;66.60;;;;;;6151957;29;20053;-77
2023/04/04 11:24:22;;;;;;;;;;;6.50;66.40;;;;;;6152390;29;20552;-77
2023/04/04 11:27:23;;;;;;;5.70;2.92;;;6.60;67.50;;;;;;6151815;29;19926;-78
2023/04/04 11:30:27;;;;;;;6.05;2.60;;;6.70;67.50;;;;;;6151672;29;20047;-77
2023/04/04 11:33:31;;;;;;;5.68;2.47;;;6.90;67.60;;;;;;6151759;29;20051;-78
2023/04/04 11:36:52;;;;;;;7.15;2.80;;;7.00;67.10;;;;;;6151772;29;20086;-78
2023/04/04 11:39:57;;;;;;;5.85;2.70;;;7.00;69.10;;;;;;6151352;28;20260;-77
2023/04/04 11:43:03;;;;;;;6.05;2.85;;;7.00;68.30;;;;;;6152027;29;20047;-79
2023/04/04 11:46:09;;;;;;;6.72;3.40;;;7.10;64.50;;;;;;6151785;29;20051;-78
2023/04/04 11:49:11;;;;;;;5.80;2.67;;;7.20;65.40;;;;;;6151709;29;20106;-77
2023/04/04 11:52:15;;;;;;;6.53;2.75;;;7.40;66.10;;;;;;6151675;29;20066;-77
2023/04/04 11:55:21;;;;;;;5.75;2.50;;;7.60;66.00;;;;;;6151534;29;20058;-77
2023/04/04 11:58:23;;;;;;;6.07;2.60;;;7.80;64.70;;;;;;6151690;29;20202;-79
2023/04/04 12:01:25;;;;;;;6.07;3.05;;;7.80;64.90;;;;;;6151898;29;20102;-79
2023/04/04 12:04:27;;;;;;;4.40;2.50;;;7.80;61.30;;;;;;6151684;29;20044;-78
2023/04/04 12:07:29;;;;;;;7.60;2.95;;;7.80;62.50;;;;;;6151747;29;20055;-78
2023/04/04 12:10:35;;;;;;;7.28;3.03;;;7.90;62.50;;;;;;6151629;29;20055;-76
2023/04/04 12:13:43;;;;;;;5.22;2.22;;;8.10;63.50;;;;;;6151957;29;20503;-77
2023/04/04 12:16:47;;;;;;;4.70;2.47;;;8.40;63.20;;;;;;6154838;29;20055;-79
2023/04/04 12:19:49;;;;;;;6.35;2.70;;;8.50;64.70;;;;;;6156216;29;20087;-78
2023/04/04 12:22:52;;;;;;;6.15;3.00;;;8.60;63.00;;;;;;6153725;29;20047;-78
2023/04/04 12:25:56;;;;;;;6.38;2.83;;;8.60;61.40;;;;;;6151251;29;20051;-77
2023/04/04 12:28:58;;;;;;;5.53;2.88;;;8.80;62.00;;;;;;6151051;29;20054;-78
2023/04/04 12:32:00;;;;;;;5.82;2.78;;;8.80;61.10;;;;;;6151348;29;20052;-78
2023/04/04 12:35:02;;;;;;;6.30;2.80;;;8.90;60.80;;;;;;6151435;29;20050;-79
2023/04/04 12:38:06;;;;;;;6.10;2.80;;;9.00;60.40;;;;;;6151301;29;20154;-79
2023/04/04 12:41:18;;;;;;;6.05;3.00;;;9.20;59.90;;;;;;6150931;29;20078;-77
2023/04/04 12:44:28;;;;;;;5.45;2.63;;;9.90;60.20;;;;;;6151158;29;20066;-75
2023/04/04 12:47:31;;;;;;;4.60;2.33;;;9.80;60.00;;;;;;6131275;29;20047;-76
2023/04/04 12:50:33;;;;;;;6.00;2.97;;;9.80;60.20;;;;;;6127468;29;20048;-77
2023/04/04 12:53:51;;;;;;;6.88;2.97;;;9.70;60.50;;;;;;6131733;29;20512;-78
2023/04/04 12:56:56;;;;;;;6.32;3.00;;;9.70;60.40;;;;;;6132008;29;20048;-76
2023/04/04 13:00:02;;;;;;;5.72;2.70;;;9.80;58.40;;;;;;6132807;29;20047;-77
2023/04/04 13:03:04;;;;;;;5.57;2.95;;;10.20;58.70;;;;;;6133993;29;20526;-77
2023/04/04 13:06:12;;;;;;;5.22;2.63;;;9.90;59.30;;;;;;6135153;29;20056;-77
2023/04/04 13:09:19;;;;;;;7.13;3.00;;;10.20;59.90;;;;;;6135938;29;20050;-77
2023/04/04 13:12:23;;;;;;;5.22;2.55;;;10.50;58.30;;;;;;6135626;29;20047;-79
2023/04/04 13:15:49;;;;;;;5.65;3.13;;;10.40;58.40;;;;;;6131960;29;20053;-78
2023/04/04 13:18:51;;;;;;;6.18;2.60;;;10.70;58.20;;;;;;6131194;29;20115;-78
2023/04/04 13:21:53;;;;;;;6.18;2.97;;;11.00;58.50;;;;;;6130868;29;20495;-78
2023/04/04 13:24:55;;;;;;;7.20;3.00;;;11.30;56.60;;;;;;6131059;29;20071;-77
2023/04/04 13:27:58;;;;;;;5.38;2.80;;;11.40;54.70;;;;;;6130838;29;20047;-78
2023/04/04 13:31:03;;;;;;;5.60;2.83;;;11.00;56.20;;;;;;6130607;29;20417;-77
2023/04/04 13:34:05;;;;;;;10.05;4.55;;;11.20;55.50;;;;;;6130950;29;20052;-77
2023/04/04 13:37:07;;;;;;;5.68;3.05;;;11.50;54.50;;;;;;6130402;29;20081;-76
2023/04/04 13:40:10;;;;;;;5.30;2.70;;;11.70;54.50;;;;;;6130824;29;20504;-76
2023/04/04 13:43:14;;;;;;;;;;;11.40;55.20;;;;;;6131080;29;20051;-76
2023/04/04 13:46:16;;;;;;;6.82;2.45;;;11.60;55.20;;;;;;6130738;29;19923;-79
2023/04/04 13:49:18;;;;;;;6.43;3.08;;;11.70;54.30;;;;;;6130694;29;20048;-77
2023/04/04 13:52:21;;;;;;;6.13;2.92;;;12.20;51.40;;;;;;6130875;29;20494;-79
2023/04/04 13:55:23;;;;;;;4.93;2.45;;;12.30;53.20;;;;;;6130750;29;20499;-78
2023/04/04 13:58:26;;;;;;;7.07;2.67;;;12.40;52.40;;;;;;6130812;29;20052;-77
2023/04/04 14:01:28;;;;;;;10.07;2.97;;;12.20;53.00;;;;;;6130222;29;20058;-80
2023/04/04 14:04:30;;;;;;;5.13;2.80;;;11.90;52.80;;;;;;6130395;29;20051;-77
2023/04/04 14:07:32;;;;;;;5.05;2.60;;;12.10;53.00;;;;;;6130617;29;20504;-78
2023/04/04 14:10:34;;;;;;;6.15;2.88;;;12.70;55.00;;;;;;6130547;29;20493;-77
2023/04/04 14:13:37;;;;;;;7.30;2.75;;;13.20;52.60;;;;;;6131349;29;20055;-77
2023/04/04 14:16:39;;;;;;;5.53;2.30;;;13.50;51.90;;;;;;6131290;29;20404;-78
2023/04/04 14:19:43;;;;;;;6.45;2.50;;;13.40;48.70;;;;;;6130732;29;20502;-78
2023/04/04 14:22:45;;;;;;;4.95;2.45;;;13.20;49.90;;;;;;6130253;29;20386;-78
2023/04/04 14:25:48;;;;;;;5.32;2.55;;;13.40;50.30;;;;;;6130711;29;20496;-79
2023/04/04 14:28:51;;;;;;;5.03;2.67;;;14.00;50.70;;;;;;6131371;29;20417;-77
2023/04/04 14:31:54;;;;;;;5.40;2.60;;;14.30;49.60;;;;;;6131561;29;20480;-76
2023/04/04 14:34:56;;;;;;;6.38;2.33;;;13.90;49.40;;;;;;6129836;29;20099;-79
2023/04/04 14:37:58;;;;;;;6.30;2.28;;;14.80;48.00;;;;;;6129896;29;20048;-78
2023/04/04 14:41:00;;;;;;;5.47;2.67;;;16.00;46.90;;;;;;6129831;29;20486;-78
2023/04/04 14:44:03;;;;;;;6.70;3.13;;;15.30;46.90;;;;;;6129739;29;20106;-77
2023/04/04 14:47:05;;;;;;;5.40;3.10;;;16.50;44.40;;;;;;6144045;29;20551;-77
2023/04/04 14:50:09;;;;;;;6.40;3.30;;;16.80;42.60;;;;;;6153929;29;20050;-77
2023/04/04 14:53:11;;;;;;;6.57;3.00;;;19.40;42.10;;;;;;6153491;29;20047;-78
2023/04/04 14:56:13;;;;;;;4.70;2.80;;;22.60;35.10;;;;;;6155892;29;20062;-76
2023/04/04 14:59:16;;;;;;;4.47;2.45;;;27.20;32.00;;;;;;6152681;29;20074;-77
2023/04/04 15:02:18;;;;;;;4.53;2.40;;;29.50;30.00;;;;;;6152685;29;20538;-75
2023/04/04 15:05:20;;;;;;;3.85;2.15;;;29.70;27.90;;;;;;6153607;29;20155;-77
2023/04/04 15:08:22;;;;;;;;;;;29.10;28.40;;;;;;6160268;29;20631;-77
2023/04/04 15:11:26;;;;;;;4.78;2.10;;;29.40;28.00;;;;;;6157417;29;19929;-78
2023/04/04 15:14:30;;;;;;;4.40;2.10;;;28.20;27.30;;;;;;6152903;28;20055;-83
2023/04/04 15:17:32;;;;;;;4.47;2.28;;;31.10;27.80;;;;;;6157888;29;20047;-81
2023/04/04 15:20:37;;;;;;;4.38;2.20;;;31.20;27.30;;;;;;6155635;29;20043;-78
2023/04/04 15:23:39;;;;;;;4.05;2.08;;;29.50;26.60;;;;;;6152667;29;20102;-73
2023/04/04 15:26:41;;;;;;;;;;;29.60;27.00;;;;;;6147907;28;20126;-79
2023/04/04 15:29:44;;;;;;;3.83;1.98;;;30.60;27.90;;;;;;6140139;28;19930;-80
2023/04/04 15:32:46;;;;;;;4.47;1.85;;;30.30;27.10;;;;;;6128587;29;20059;-81
2023/04/04 15:35:48;;;;;;;;;;;32.60;27.10;;;;;;6144712;28;20054;-77
2023/04/04 15:38:50;;;;;;;4.22;2.17;;;32.00;26.50;;;;;;6159602;28;19969;-76
2023/04/04 15:41:52;;;;;;;5.20;2.00;;;32.20;26.30;;;;;;6145677;28;20504;-78
2023/04/04 15:44:55;;;;;;;;;;;29.30;26.60;;;;;;6152425;28;20050;-81
2023/04/04 15:47:57;;;;;;;5.15;1.90;;;30.10;27.20;;;;;;6155135;29;19926;-80
2023/04/04 15:51:02;;;;;;;4.60;1.92;;;29.30;27.20;;;;;;6152347;29;20055;-80
2023/04/04 15:54:04;;;;;;;5.32;1.90;;;30.80;27.20;;;;;;6148992;29;20059;-80
2023/04/04 15:57:05;;;;;;;;;;;28.80;26.90;;;;;;6142891;29;20083;-78
2023/04/04 16:00:11;;;;;;;5.28;1.85;;;28.50;26.70;;;;;;6147235;29;19957;-78
2023/04/04 16:03:13;;;;;;;3.85;1.90;;;27.30;26.60;;;;;;6136767;29;20505;-79
2023/04/04 16:06:15;;;;;;;5.30;2.10;;;27.00;26.20;;;;;;6141215;29;20047;-79
2023/04/04 16:09:17;;;;;;;4.28;1.92;;;26.50;27.00;;;;;;6149603;29;20055;-79
2023/04/04 16:12:19;;;;;;;4.45;2.10;;;27.60;27.00;;;;;;6148327;29;20047;-79
2023/04/04 16:15:22;;;;;;;;;;;28.10;27.20;;;;;;6148759;29;20055;-80
2023/04/04 16:18:24;;;;;;;5.55;2.03;;;28.90;26.80;;;;;;6143892;29;19933;-80
2023/04/04 16:21:26;;;;;;;3.95;2.20;;;28.10;27.20;;;;;;6136764;29;20767;-79
2023/04/04 16:24:28;;;;;;;5.43;2.17;;;26.10;27.00;;;;;;6146730;29;20054;-79
2023/04/04 16:27:30;;;;;;;3.83;1.90;;;25.30;27.60;;;;;;6155153;28;20070;-80
2023/04/04 16:30:34;;;;;;;4.80;2.28;;;25.00;27.70;;;;;;6145825;29;20047;-79
2023/04/04 16:33:36;;;;;;;4.47;2.28;;;25.60;28.40;;;;;;6150638;29;20473;-78
2023/04/04 16:36:38;;;;;;;4.82;2.40;;;25.60;27.90;;;;;;6151634;29;20047;-80
2023/04/04 16:39:40;;;;;;;4.60;2.30;;;23.50;28.00;;;;;;6153748;29;20051;-82
2023/04/04 16:42:42;;;;;;;5.33;2.20;;;24.20;28.90;;;;;;6149993;29;20321;-81
2023/04/04 16:45:46;;;;;;;5.37;2.87;;;24.10;28.80;;;;;;6153245;29;20477;-80
2023/04/04 16:48:49;;;;;;;3.78;2.30;;;23.10;29.10;;;;;;6151784;29;20321;-77
2023/04/04 16:51:51;;;;;;;4.22;2.65;;;21.30;30.00;;;;;;6151601;29;20051;-78
2023/04/04 16:54:54;;;;;;;4.43;2.38;;;21.30;30.20;;;;;;6145229;29;20383;-79
2023/04/04 16:57:56;;;;;;;4.57;2.40;;;20.70;30.20;;;;;;6149597;29;20062;-78
2023/04/04 17:00:59;;;;;;;5.25;2.38;;;19.80;31.80;;;;;;6149015;29;20473;-81
2023/04/04 17:04:02;;;;;;;8.05;4.60;;;19.20;32.80;;;;;;6148060;28;20106;-81
2023/04/04 17:07:05;;;;;;;5.85;2.90;;;19.10;32.80;;;;;;6152844;29;20528;-80
2023/04/04 17:10:09;;;;;;;7.30;2.70;;;19.40;32.10;;;;;;6154369;29;20051;-80
2023/04/04 17:13:11;;;;;;;5.63;2.90;;;18.30;33.30;;;;;;6141502;28;20321;-81
2023/04/04 17:16:14;;;;;;;7.35;3.50;;;17.10;34.80;;;;;;6153608;29;20493;-77
2023/04/04 17:19:16;;;;;;;5.95;2.47;;;16.40;36.00;;;;;;6158003;29;20417;-78
2023/04/04 17:22:18;;;;;;;4.85;2.58;;;15.70;35.70;;;;;;6160594;29;20058;-78
2023/04/04 17:25:25;;;;;;;4.65;2.42;;;15.30;37.30;;;;;;6162310;29;20051;-79
2023/04/04 17:28:27;;;;;;;5.97;2.72;;;14.40;37.30;;;;;;6159211;29;20055;-78
2023/04/04 17:31:30;;;;;;;6.10;2.40;;;14.00;38.60;;;;;;6153609;29;20055;-80
2023/04/04 17:34:32;;;;;;;;;;;13.80;39.40;;;;;;6154107;29;20057;-80
2023/04/04 17:37:34;;;;;;;5.35;2.60;;;12.90;40.50;;;;;;6151149;28;19941;-76
2023/04/04 17:40:36;;;;;;;5.82;3.00;;;12.70;40.60;;;;;;6147259;29;20392;-76
2023/04/04 17:43:38;;;;;;;6.88;2.80;;;11.80;41.50;;;;;;6150046;29;20456;-78
2023/04/04 17:46:41;;;;;;;7.28;2.95;;;11.50;42.10;;;;;;6151707;29;20055;-79
2023/04/04 17:49:44;;;;;;;5.65;3.10;;;11.20;42.50;;;;;;6150865;29;20055;-76
2023/04/04 17:52:46;;;;;;;5.70;2.70;;;10.80;43.50;;;;;;6148042;29;20043;-78
2023/04/04 17:55:48;;;;;;;7.40;3.70;;;10.60;43.80;;;;;;6151222;29;20047;-77
2023/04/04 17:58:52;;;;;;;8.27;2.90;;;10.50;44.50;;;;;;6150117;29;20496;-79
2023/04/04 18:01:55;;;;;;;6.82;2.90;;;10.10;45.40;;;;;;6149972;29;20058;-76
2023/04/04 18:04:57;;;;;;;7.70;3.58;;;9.90;45.30;;;;;;6151581;29;20591;-79
2023/04/04 18:08:03;;;;;;;6.65;3.20;;;9.80;46.50;;;;;;6143866;29;20051;-76
2023/04/04 18:11:06;;;;;;;5.68;3.33;;;9.90;46.80;;;;;;6150560;29;20050;-78
2023/04/04 18:14:08;;;;;;;6.10;2.65;;;9.90;47.80;;;;;;6128261;29;20420;-81
2023/04/04 18:17:12;;;;;;;5.10;2.72;;;9.90;46.90;;;;;;6138680;29;20047;-77
2023/04/04 18:20:14;;;;;;;7.63;2.80;;;9.90;47.10;;;;;;6149891;28;20051;-78
2023/04/04 18:23:18;;;;;;;6.40;3.20;;;10.00;47.00;;;;;;6149561;29;20469;-78
2023/04/04 18:26:20;;;;;;;5.28;3.00;;;9.60;47.20;;;;;;6150763;29;20059;-76
2023/04/04 18:29:23;;;;;;;7.45;3.15;;;9.20;49.20;;;;;;6151766;29;20066;-78
2023/04/04 18:32:27;;;;;;;7.50;3.17;;;9.00;48.70;;;;;;6152399;28;20052;-78
2023/04/04 18:35:29;;;;;;;6.18;3.38;;;8.80;49.60;;;;;;6149382;29;20055;-79
2023/04/04 18:38:31;;;;;;;6.72;2.88;;;8.60;50.20;;;;;;6150404;29;20492;-77
2023/04/04 18:41:33;;;;;;;5.65;2.65;;;8.40;50.90;;;;;;6149469;29;20051;-78
2023/04/04 18:44:36;;;;;;;6.32;2.88;;;8.40;51.90;;;;;;6151785;29;20417;-78
2023/04/04 18:47:40;;;;;;;4.95;2.72;;;8.50;51.60;;;;;;6148818;29;20043;-79
2023/04/04 18:50:41;;;;;;;6.95;2.70;;;8.70;50.80;;;;;;6147284;28;20051;-79
2023/04/04 18:53:43;;;;;;;5.90;3.00;;;8.80;51.50;;;;;;6149886;29;20047;-76
2023/04/04 18:56:45;;;;;;;6.80;3.00;;;8.80;53.20;;;;;;6148758;29;20058;-76
2023/04/04 18:59:47;;;;;;;5.38;2.60;;;8.90;51.60;;;;;;6149202;29;20059;-78
2023/04/04 19:02:50;;;;;;;6.80;2.83;;;8.70;51.70;;;;;;6149182;29;20503;-77
2023/04/04 19:05:53;;;;;;;6.55;2.78;;;8.80;50.90;;;;;;6147113;29;20051;-77
2023/04/04 19:08:57;;;;;;;4.63;2.30;;;8.70;51.50;;;;;;6129492;29;20060;-76
2023/04/04 19:11:59;;;;;;;;;;;8.60;51.70;;;;;;6152099;29;20051;-77
2023/04/04 19:15:01;;;;;;;6.30;2.20;;;8.70;52.60;;;;;;6156200;28;19922;-78
2023/04/04 19:18:05;;;;;;;5.63;2.92;;;8.60;52.30;;;;;;6153531;28;20057;-76
2023/04/04 19:21:06;;;;;;;6.53;3.03;;;8.60;52.00;;;;;;6148704;29;20062;-78
2023/04/04 19:24:10;;;;;;;6.78;2.80;;;8.50;52.10;;;;;;6145979;29;20054;-77
2023/04/04 19:27:12;;;;;;;5.13;2.53;;;8.50;52.80;;;;;;6150022;29;20055;-79
2023/04/04 19:30:40;;;;;;;6.03;2.80;;;8.40;52.90;;;;;;6171349;28;20054;-79
2023/04/04 19:33:44;;;;;;;6.15;2.63;;;8.30;53.70;;;;;;6175077;28;20491;-78
2023/04/04 19:36:46;;;;;;;6.68;3.40;;;8.20;54.60;;;;;;6173976;28;20400;-77
2023/04/04 19:39:49;;;;;;;6.13;3.08;;;8.10;55.00;;;;;;6157808;28;20062;-76
2023/04/04 19:42:50;;;;;;;8.60;2.70;;;8.00;56.00;;;;;;6148433;28;20454;-78
2023/04/04 19:45:54;;;;;;;5.80;3.00;;;7.90;56.90;;;;;;6147534;28;20066;-78
2023/04/04 19:48:58;;;;;;;6.38;2.75;;;7.90;56.50;;;;;;6148157;29;20043;-78
2023/04/04 19:52:04;;;;;;;5.13;2.65;;;7.90;55.90;;;;;;6147930;29;20078;-77
2023/04/04 19:55:09;;;;;;;6.78;3.28;;;7.60;55.90;;;;;;6150465;28;20686;-78
2023/04/04 19:58:19;;;;;;;7.72;3.13;;;7.60;55.60;;;;;;6148626;29;20054;-79
2023/04/04 20:01:24;;;;;;;7.38;3.22;;;7.70;55.80;;;;;;6145750;28;20078;-79
2023/04/04 20:04:28;;;;;;;6.20;3.42;;;7.60;56.70;;;;;;6146818;29;20054;-78
2023/04/04 20:07:30;;;;;;;5.70;2.92;;;7.60;57.30;;;;;;6148052;29;20405;-79
2023/04/04 20:10:37;;;;;;;8.45;3.50;;;7.50;57.70;;;;;;6145914;29;20047;-77
2023/04/04 20:13:40;;;;;;;7.03;3.60;;;7.60;57.30;;;;;;6147526;29;20069;-78
2023/04/04 20:16:42;;;;;;;6.90;3.10;;;7.60;57.80;;;;;;6147435;29;20062;-80
2023/04/04 20:19:45;;;;;;;6.10;3.60;;;7.50;58.60;;;;;;6147013;29;20066;-77
2023/04/04 20:22:51;;;;;;;9.05;3.47;;;7.40;59.00;;;;;;6147657;29;20690;-77
2023/04/04 20:25:54;;;;;;;5.90;3.17;;;7.40;59.30;;;;;;6147294;29;20051;-79
2023/04/04 20:28:59;;;;;;;6.13;3.28;;;7.30;60.10;;;;;;6146516;29;20063;-79
2023/04/04 20:32:04;;;;;;;6.65;3.17;;;7.30;60.00;;;;;;6139804;29;20059;-78
2023/04/04 20:35:08;;;;;;;8.68;3.80;;;7.20;60.20;;;;;;6146044;29;20051;-78
2023/04/04 20:38:10;;;;;;;7.78;3.30;;;7.00;60.50;;;;;;6146615;29;20055;-77
2023/04/04 20:41:18;;;;;;;8.70;4.43;;;7.00;61.80;;;;;;6145696;29;20123;-77
2023/04/04 20:44:20;;;;;;;15.13;6.72;;;7.10;61.70;;;;;;6145729;29;20421;-77
2023/04/04 20:47:42;;;;;;;12.65;6.13;;;7.00;61.20;;;;;;6147049;29;20062;-77
2023/04/04 20:50:46;;;;;;;10.30;5.10;;;7.00;62.60;;;;;;6124175;29;20055;-78
2023/04/04 20:53:48;;;;;;;13.10;6.40;;;6.90;63.10;;;;;;6124818;29;20067;-79
2023/04/04 20:56:55;;;;;;;11.70;6.68;;;6.80;63.40;;;;;;6148339;29;20424;-79
2023/04/04 20:59:57;;;;;;;10.82;6.45;;;6.70;63.80;;;;;;6149468;29;20051;-79
2023/04/04 21:03:01;;;;;;;13.95;6.70;;;6.70;63.60;;;;;;6152540;29;20051;-80
2023/04/04 21:06:11;;;;;;;10.23;5.68;;;6.60;63.90;;;;;;6151667;29;20503;-79
2023/04/04 21:09:13;;;;;;;8.20;4.88;;;6.00;65.50;;;;;;6147896;29;20063;-78
2023/04/04 21:12:15;;;;;;;11.95;5.32;;;6.10;65.30;;;;;;6148915;28;20054;-78
2023/04/04 21:15:23;;;;;;;10.00;4.97;;;6.20;65.80;;;;;;6139776;29;20488;-77
2023/04/04 21:18:29;;;;;;;10.55;5.65;;;6.30;65.30;;;;;;6151025;29;20515;-78
2023/04/04 21:21:35;;;;;;;8.18;4.82;;;6.30;65.30;;;;;;6151319;29;20150;-77
2023/04/04 21:24:37;;;;;;;8.02;4.18;;;6.30;65.60;;;;;;6148915;28;20062;-77
2023/04/04 21:27:39;;;;;;;9.10;4.10;;;6.20;66.10;;;;;;6151110;29;20059;-77
2023/04/04 21:30:44;;;;;;;8.88;4.38;;;6.10;66.90;;;;;;6149451;29;20184;-78
2023/04/04 21:33:49;;;;;;;9.05;4.40;;;6.00;66.40;;;;;;6150501;29;20647;-79
2023/04/04 21:36:55;;;;;;;9.18;4.45;;;5.90;66.30;;;;;;6152214;28;20493;-78
2023/04/04 21:39:59;;;;;;;8.55;4.53;;;5.90;67.40;;;;;;6168390;28;20047;-77
2023/04/04 21:43:01;;;;;;;8.30;4.47;;;5.80;67.30;;;;;;6144413;29;20820;-80
2023/04/04 21:46:02;;;;;;;9.73;5.00;;;5.70;67.90;;;;;;6149255;28;20058;-78
2023/04/04 21:49:05;;;;;;;9.77;4.70;;;5.70;68.50;;;;;;6143230;29;20047;-78
2023/04/04 21:52:08;;;;;;;9.17;4.93;;;5.70;68.50;;;;;;6152658;28;20063;-77
2023/04/04 21:55:10;;;;;;;10.48;5.63;;;5.80;69.00;;;;;;6150958;29;20055;-78
2023/04/04 21:58:13;;;;;;;10.10;5.63;;;5.70;67.60;;;;;;6148725;29;20047;-78
